sensor_id;sensor_type;location;lat;lon;timestamp;temperature;humidity
23231;DHT22;11784;49.818;8.632;2022-08-05T00:00:17;27.70;62.10
23231;DHT22;11784;49.818;8.632;2022-08-05T00:02:44;27.70;61.20
23231;DHT22;11784;49.818;8.632;2022-08-05T00:05:09;27.70;61.10
23231;DHT22;11784;49.818;8.632;2022-08-05T00:07:35;27.60;59.80
23231;DHT22;11784;49.818;8.632;2022-08-05T00:10:01;27.50;60.60
23231;DHT22;11784;49.818;8.632;2022-08-05T00:12:26;27.50;60.80
23231;DHT22;11784;49.818;8.632;2022-08-05T00:14:52;27.40;60.50
23231;DHT22;11784;49.818;8.632;2022-08-05T00:17:17;27.40;61.00
23231;DHT22;11784;49.818;8.632;2022-08-05T00:19:43;27.40;62.80
23231;DHT22;11784;49.818;8.632;2022-08-05T00:22:08;27.30;62.80
23231;DHT22;11784;49.818;8.632;2022-08-05T00:24:34;27.30;63.20
23231;DHT22;11784;49.818;8.632;2022-08-05T00:27:00;27.30;63.90
23231;DHT22;11784;49.818;8.632;2022-08-05T00:29:25;27.20;64.80
23231;DHT22;11784;49.818;8.632;2022-08-05T00:31:52;27.30;66.30
23231;DHT22;11784;49.818;8.632;2022-08-05T00:34:18;27.30;67.20
23231;DHT22;11784;49.818;8.632;2022-08-05T00:36:43;27.30;67.00
23231;DHT22;11784;49.818;8.632;2022-08-05T00:39:09;27.30;66.50
23231;DHT22;11784;49.818;8.632;2022-08-05T00:41:35;27.20;66.70
23231;DHT22;11784;49.818;8.632;2022-08-05T00:44:01;27.20;66.50
23231;DHT22;11784;49.818;8.632;2022-08-05T00:46:26;27.30;67.20
23231;DHT22;11784;49.818;8.632;2022-08-05T00:48:52;27.20;67.90
23231;DHT22;11784;49.818;8.632;2022-08-05T00:51:19;27.20;66.80
23231;DHT22;11784;49.818;8.632;2022-08-05T00:53:45;27.30;68.70
23231;DHT22;11784;49.818;8.632;2022-08-05T00:56:13;27.30;67.60
23231;DHT22;11784;49.818;8.632;2022-08-05T00:58:39;27.30;67.80
23231;DHT22;11784;49.818;8.632;2022-08-05T01:01:05;27.30;68.90
23231;DHT22;11784;49.818;8.632;2022-08-05T01:03:30;27.30;68.50
23231;DHT22;11784;49.818;8.632;2022-08-05T01:05:56;27.30;66.90
23231;DHT22;11784;49.818;8.632;2022-08-05T01:08:21;27.30;68.60
23231;DHT22;11784;49.818;8.632;2022-08-05T01:10:53;27.30;67.70
23231;DHT22;11784;49.818;8.632;2022-08-05T01:13:24;27.40;67.70
23231;DHT22;11784;49.818;8.632;2022-08-05T01:15:58;27.40;68.30
23231;DHT22;11784;49.818;8.632;2022-08-05T01:18:30;27.40;68.30
23231;DHT22;11784;49.818;8.632;2022-08-05T01:26:44;27.40;67.60
23231;DHT22;11784;49.818;8.632;2022-08-05T01:29:20;27.40;67.70
23231;DHT22;11784;49.818;8.632;2022-08-05T01:31:52;27.40;68.30
23231;DHT22;11784;49.818;8.632;2022-08-05T01:34:22;27.50;69.10
23231;DHT22;11784;49.818;8.632;2022-08-05T01:36:53;27.50;69.20
23231;DHT22;11784;49.818;8.632;2022-08-05T01:39:20;27.50;69.10
23231;DHT22;11784;49.818;8.632;2022-08-05T01:41:48;27.50;68.70
23231;DHT22;11784;49.818;8.632;2022-08-05T01:44:17;27.50;68.80
23231;DHT22;11784;49.818;8.632;2022-08-05T01:46:44;27.50;68.40
23231;DHT22;11784;49.818;8.632;2022-08-05T01:49:14;27.50;69.80
23231;DHT22;11784;49.818;8.632;2022-08-05T01:51:41;27.50;70.20
23231;DHT22;11784;49.818;8.632;2022-08-05T01:54:08;27.50;69.90
23231;DHT22;11784;49.818;8.632;2022-08-05T01:56:38;27.50;68.60
23231;DHT22;11784;49.818;8.632;2022-08-05T01:59:12;27.60;68.80
23231;DHT22;11784;49.818;8.632;2022-08-05T02:01:39;27.60;68.50
23231;DHT22;11784;49.818;8.632;2022-08-05T02:04:08;27.50;68.50
23231;DHT22;11784;49.818;8.632;2022-08-05T02:06:33;27.60;68.90
23231;DHT22;11784;49.818;8.632;2022-08-05T02:08:59;27.50;69.10
23231;DHT22;11784;49.818;8.632;2022-08-05T02:11:29;27.60;68.70
23231;DHT22;11784;49.818;8.632;2022-08-05T02:14:01;27.60;67.60
23231;DHT22;11784;49.818;8.632;2022-08-05T02:16:45;27.50;67.00
23231;DHT22;11784;49.818;8.632;2022-08-05T02:19:29;27.50;66.90
23231;DHT22;11784;49.818;8.632;2022-08-05T02:22:01;27.50;67.80
23231;DHT22;11784;49.818;8.632;2022-08-05T02:24:31;27.50;66.70
23231;DHT22;11784;49.818;8.632;2022-08-05T02:27:00;27.50;67.20
23231;DHT22;11784;49.818;8.632;2022-08-05T02:29:27;27.50;66.80
23231;DHT22;11784;49.818;8.632;2022-08-05T02:31:58;27.50;66.80
23231;DHT22;11784;49.818;8.632;2022-08-05T02:34:27;27.50;67.30
23231;DHT22;11784;49.818;8.632;2022-08-05T02:36:57;27.50;67.10
23231;DHT22;11784;49.818;8.632;2022-08-05T02:39:26;27.50;65.90
23231;DHT22;11784;49.818;8.632;2022-08-05T02:41:52;27.50;65.70
23231;DHT22;11784;49.818;8.632;2022-08-05T02:44:19;27.50;66.40
23231;DHT22;11784;49.818;8.632;2022-08-05T02:46:48;27.50;65.50
23231;DHT22;11784;49.818;8.632;2022-08-05T02:49:15;27.50;64.60
23231;DHT22;11784;49.818;8.632;2022-08-05T02:51:42;27.50;67.10
23231;DHT22;11784;49.818;8.632;2022-08-05T02:54:09;27.50;67.40
23231;DHT22;11784;49.818;8.632;2022-08-05T02:56:35;27.50;66.70
23231;DHT22;11784;49.818;8.632;2022-08-05T02:59:02;27.50;68.10
23231;DHT22;11784;49.818;8.632;2022-08-05T03:01:29;27.50;69.40
23231;DHT22;11784;49.818;8.632;2022-08-05T03:03:59;27.40;68.50
23231;DHT22;11784;49.818;8.632;2022-08-05T03:06:26;27.40;67.50
23231;DHT22;11784;49.818;8.632;2022-08-05T03:08:52;27.40;70.20
23231;DHT22;11784;49.818;8.632;2022-08-05T03:11:22;27.40;71.90
23231;DHT22;11784;49.818;8.632;2022-08-05T03:13:49;27.30;71.90
23231;DHT22;11784;49.818;8.632;2022-08-05T03:16:15;27.30;72.40
23231;DHT22;11784;49.818;8.632;2022-08-05T03:18:41;27.30;72.90
23231;DHT22;11784;49.818;8.632;2022-08-05T03:21:06;27.30;73.40
23231;DHT22;11784;49.818;8.632;2022-08-05T03:23:33;27.20;72.40
23231;DHT22;11784;49.818;8.632;2022-08-05T03:26:00;27.20;72.70
23231;DHT22;11784;49.818;8.632;2022-08-05T03:28:26;27.20;74.50
23231;DHT22;11784;49.818;8.632;2022-08-05T03:30:53;27.10;75.00
23231;DHT22;11784;49.818;8.632;2022-08-05T03:33:19;27.10;74.50
23231;DHT22;11784;49.818;8.632;2022-08-05T03:35:46;27.10;74.40
23231;DHT22;11784;49.818;8.632;2022-08-05T03:38:13;27.00;74.70
23231;DHT22;11784;49.818;8.632;2022-08-05T03:40:43;27.00;75.10
23231;DHT22;11784;49.818;8.632;2022-08-05T03:43:09;27.00;73.90
23231;DHT22;11784;49.818;8.632;2022-08-05T03:45:35;27.00;74.40
23231;DHT22;11784;49.818;8.632;2022-08-05T03:48:01;26.90;76.70
23231;DHT22;11784;49.818;8.632;2022-08-05T03:53:14;26.70;77.80
23231;DHT22;11784;49.818;8.632;2022-08-05T03:55:52;26.70;79.10
23231;DHT22;11784;49.818;8.632;2022-08-05T03:58:23;26.60;80.50
23231;DHT22;11784;49.818;8.632;2022-08-05T04:00:53;26.40;79.20
23231;DHT22;11784;49.818;8.632;2022-08-05T04:03:20;26.20;77.80
23231;DHT22;11784;49.818;8.632;2022-08-05T04:05:47;26.20;79.50
23231;DHT22;11784;49.818;8.632;2022-08-05T04:08:13;26.10;78.20
23231;DHT22;11784;49.818;8.632;2022-08-05T04:10:39;26.00;77.00
23231;DHT22;11784;49.818;8.632;2022-08-05T04:13:06;25.90;77.90
23231;DHT22;11784;49.818;8.632;2022-08-05T04:15:32;25.80;78.50
23231;DHT22;11784;49.818;8.632;2022-08-05T04:18:01;25.80;79.00
23231;DHT22;11784;49.818;8.632;2022-08-05T04:20:26;25.80;80.50
23231;DHT22;11784;49.818;8.632;2022-08-05T04:22:52;25.80;80.00
23231;DHT22;11784;49.818;8.632;2022-08-05T04:25:17;25.70;80.20
23231;DHT22;11784;49.818;8.632;2022-08-05T04:27:43;25.70;82.20
23231;DHT22;11784;49.818;8.632;2022-08-05T04:30:09;25.70;83.40
23231;DHT22;11784;49.818;8.632;2022-08-05T04:32:35;25.70;82.90
23231;DHT22;11784;49.818;8.632;2022-08-05T04:35:00;25.70;81.30
23231;DHT22;11784;49.818;8.632;2022-08-05T04:37:26;25.80;80.40
23231;DHT22;11784;49.818;8.632;2022-08-05T04:39:51;25.70;81.30
23231;DHT22;11784;49.818;8.632;2022-08-05T04:42:17;25.70;82.50
23231;DHT22;11784;49.818;8.632;2022-08-05T04:44:42;25.70;82.50
23231;DHT22;11784;49.818;8.632;2022-08-05T04:47:08;25.70;83.30
23231;DHT22;11784;49.818;8.632;2022-08-05T04:49:33;25.70;83.50
23231;DHT22;11784;49.818;8.632;2022-08-05T04:51:59;25.70;83.00
23231;DHT22;11784;49.818;8.632;2022-08-05T04:54:25;25.70;83.20
23231;DHT22;11784;49.818;8.632;2022-08-05T04:56:52;25.70;83.30
23231;DHT22;11784;49.818;8.632;2022-08-05T04:59:18;25.70;82.70
23231;DHT22;11784;49.818;8.632;2022-08-05T05:01:44;25.60;82.80
23231;DHT22;11784;49.818;8.632;2022-08-05T05:04:10;25.60;82.90
23231;DHT22;11784;49.818;8.632;2022-08-05T05:06:36;25.60;83.50
23231;DHT22;11784;49.818;8.632;2022-08-05T05:09:02;25.60;84.00
23231;DHT22;11784;49.818;8.632;2022-08-05T05:11:27;25.60;83.50
23231;DHT22;11784;49.818;8.632;2022-08-05T05:13:53;25.60;83.60
23231;DHT22;11784;49.818;8.632;2022-08-05T05:16:18;25.60;83.20
23231;DHT22;11784;49.818;8.632;2022-08-05T05:18:44;25.60;83.30
23231;DHT22;11784;49.818;8.632;2022-08-05T05:21:09;25.60;83.40
23231;DHT22;11784;49.818;8.632;2022-08-05T05:23:35;25.70;84.40
23231;DHT22;11784;49.818;8.632;2022-08-05T05:26:00;25.60;84.50
23231;DHT22;11784;49.818;8.632;2022-08-05T05:28:26;25.70;85.10
23231;DHT22;11784;49.818;8.632;2022-08-05T05:30:51;25.70;84.30
23231;DHT22;11784;49.818;8.632;2022-08-05T05:33:17;25.70;84.20
23231;DHT22;11784;49.818;8.632;2022-08-05T05:35:44;25.70;83.90
23231;DHT22;11784;49.818;8.632;2022-08-05T05:38:11;25.80;83.90
23231;DHT22;11784;49.818;8.632;2022-08-05T05:40:36;25.80;83.40
23231;DHT22;11784;49.818;8.632;2022-08-05T05:43:02;25.80;83.80
23231;DHT22;11784;49.818;8.632;2022-08-05T05:45:28;25.80;84.00
23231;DHT22;11784;49.818;8.632;2022-08-05T05:47:53;25.80;83.80
23231;DHT22;11784;49.818;8.632;2022-08-05T05:50:19;25.90;83.10
23231;DHT22;11784;49.818;8.632;2022-08-05T05:52:46;25.90;82.90
23231;DHT22;11784;49.818;8.632;2022-08-05T05:55:13;25.90;82.60
23231;DHT22;11784;49.818;8.632;2022-08-05T05:57:41;25.90;84.10
23231;DHT22;11784;49.818;8.632;2022-08-05T06:00:10;25.90;82.70
23231;DHT22;11784;49.818;8.632;2022-08-05T06:02:36;25.90;82.60
23231;DHT22;11784;49.818;8.632;2022-08-05T06:05:03;26.00;83.00
23231;DHT22;11784;49.818;8.632;2022-08-05T06:07:28;26.00;82.50
23231;DHT22;11784;49.818;8.632;2022-08-05T06:09:54;26.10;82.30
23231;DHT22;11784;49.818;8.632;2022-08-05T06:12:19;26.10;82.20
23231;DHT22;11784;49.818;8.632;2022-08-05T06:14:45;26.20;82.10
23231;DHT22;11784;49.818;8.632;2022-08-05T06:17:11;26.20;80.30
23231;DHT22;11784;49.818;8.632;2022-08-05T06:19:37;26.20;80.40
23231;DHT22;11784;49.818;8.632;2022-08-05T06:22:03;26.30;80.00
23231;DHT22;11784;49.818;8.632;2022-08-05T06:24:30;26.40;79.60
23231;DHT22;11784;49.818;8.632;2022-08-05T06:26:56;26.40;78.90
23231;DHT22;11784;49.818;8.632;2022-08-05T06:29:22;26.40;77.90
23231;DHT22;11784;49.818;8.632;2022-08-05T06:31:47;26.40;78.30
23231;DHT22;11784;49.818;8.632;2022-08-05T06:34:13;26.50;78.80
23231;DHT22;11784;49.818;8.632;2022-08-05T06:36:39;26.60;76.00
23231;DHT22;11784;49.818;8.632;2022-08-05T06:39:04;26.60;76.90
23231;DHT22;11784;49.818;8.632;2022-08-05T06:41:30;26.60;77.60
23231;DHT22;11784;49.818;8.632;2022-08-05T06:43:55;26.60;78.10
23231;DHT22;11784;49.818;8.632;2022-08-05T06:46:21;26.70;79.10
23231;DHT22;11784;49.818;8.632;2022-08-05T06:48:46;26.80;78.20
23231;DHT22;11784;49.818;8.632;2022-08-05T06:51:12;26.80;78.10
23231;DHT22;11784;49.818;8.632;2022-08-05T06:53:37;26.80;77.50
23231;DHT22;11784;49.818;8.632;2022-08-05T06:56:03;26.90;77.50
23231;DHT22;11784;49.818;8.632;2022-08-05T06:58:29;26.90;77.20
23231;DHT22;11784;49.818;8.632;2022-08-05T07:01:00;26.90;75.70
23231;DHT22;11784;49.818;8.632;2022-08-05T07:03:27;27.00;75.10
23231;DHT22;11784;49.818;8.632;2022-08-05T07:05:53;27.00;74.90
23231;DHT22;11784;49.818;8.632;2022-08-05T07:08:18;27.10;74.80
23231;DHT22;11784;49.818;8.632;2022-08-05T07:10:46;27.10;73.90
23231;DHT22;11784;49.818;8.632;2022-08-05T07:13:12;27.10;73.00
23231;DHT22;11784;49.818;8.632;2022-08-05T07:15:56;27.00;71.40
23231;DHT22;11784;49.818;8.632;2022-08-05T07:18:40;27.00;73.80
23231;DHT22;11784;49.818;8.632;2022-08-05T07:21:06;26.90;75.10
23231;DHT22;11784;49.818;8.632;2022-08-05T07:23:32;26.80;78.00
23231;DHT22;11784;49.818;8.632;2022-08-05T07:25:58;26.70;76.90
23231;DHT22;11784;49.818;8.632;2022-08-05T07:28:25;26.50;79.60
23231;DHT22;11784;49.818;8.632;2022-08-05T07:30:50;26.30;78.50
23231;DHT22;11784;49.818;8.632;2022-08-05T07:33:16;26.10;78.30
23231;DHT22;11784;49.818;8.632;2022-08-05T07:35:43;25.90;80.00
23231;DHT22;11784;49.818;8.632;2022-08-05T07:38:08;25.70;79.80
23231;DHT22;11784;49.818;8.632;2022-08-05T07:40:34;25.60;82.10
23231;DHT22;11784;49.818;8.632;2022-08-05T07:42:59;25.50;81.80
23231;DHT22;11784;49.818;8.632;2022-08-05T07:45:25;25.40;83.20
23231;DHT22;11784;49.818;8.632;2022-08-05T07:47:50;25.40;84.20
23231;DHT22;11784;49.818;8.632;2022-08-05T07:50:17;25.30;85.10
23231;DHT22;11784;49.818;8.632;2022-08-05T07:52:44;25.30;86.20
23231;DHT22;11784;49.818;8.632;2022-08-05T07:55:10;25.30;87.10
23231;DHT22;11784;49.818;8.632;2022-08-05T07:57:36;25.30;88.10
23231;DHT22;11784;49.818;8.632;2022-08-05T08:00:04;25.30;89.00
23231;DHT22;11784;49.818;8.632;2022-08-05T08:02:29;25.40;88.90
23231;DHT22;11784;49.818;8.632;2022-08-05T08:04:55;25.40;87.60
23231;DHT22;11784;49.818;8.632;2022-08-05T08:07:21;25.40;87.20
23231;DHT22;11784;49.818;8.632;2022-08-05T08:09:47;25.40;86.70
23231;DHT22;11784;49.818;8.632;2022-08-05T08:12:14;25.40;86.20
23231;DHT22;11784;49.818;8.632;2022-08-05T08:14:40;25.40;85.70
23231;DHT22;11784;49.818;8.632;2022-08-05T08:17:06;25.30;86.20
23231;DHT22;11784;49.818;8.632;2022-08-05T08:19:44;25.40;86.00
23231;DHT22;11784;49.818;8.632;2022-08-05T08:22:10;25.40;86.40
23231;DHT22;11784;49.818;8.632;2022-08-05T08:24:36;25.40;86.80
23231;DHT22;11784;49.818;8.632;2022-08-05T08:27:03;25.40;88.00
23231;DHT22;11784;49.818;8.632;2022-08-05T08:29:29;25.40;86.60
23231;DHT22;11784;49.818;8.632;2022-08-05T08:31:55;25.50;86.20
23231;DHT22;11784;49.818;8.632;2022-08-05T08:34:23;25.50;86.20
23231;DHT22;11784;49.818;8.632;2022-08-05T08:36:49;25.60;87.20
23231;DHT22;11784;49.818;8.632;2022-08-05T08:39:15;25.60;87.30
23231;DHT22;11784;49.818;8.632;2022-08-05T08:41:46;25.60;87.10
23231;DHT22;11784;49.818;8.632;2022-08-05T08:44:13;25.70;86.50
23231;DHT22;11784;49.818;8.632;2022-08-05T08:46:40;25.80;86.00
23231;DHT22;11784;49.818;8.632;2022-08-05T08:49:06;25.80;85.30
23231;DHT22;11784;49.818;8.632;2022-08-05T08:51:34;25.90;84.70
23231;DHT22;11784;49.818;8.632;2022-08-05T08:54:01;25.90;85.30
23231;DHT22;11784;49.818;8.632;2022-08-05T08:56:26;25.90;85.30
23231;DHT22;11784;49.818;8.632;2022-08-05T08:58:52;26.00;85.80
23231;DHT22;11784;49.818;8.632;2022-08-05T09:01:18;26.00;83.90
23231;DHT22;11784;49.818;8.632;2022-08-05T09:03:45;26.00;83.50
23231;DHT22;11784;49.818;8.632;2022-08-05T09:06:12;26.00;84.10
23231;DHT22;11784;49.818;8.632;2022-08-05T09:08:37;26.00;84.10
23231;DHT22;11784;49.818;8.632;2022-08-05T09:11:03;26.00;82.90
23231;DHT22;11784;49.818;8.632;2022-08-05T09:13:28;26.10;84.70
23231;DHT22;11784;49.818;8.632;2022-08-05T09:15:54;26.10;83.50
23231;DHT22;11784;49.818;8.632;2022-08-05T09:18:20;26.10;81.70
23231;DHT22;11784;49.818;8.632;2022-08-05T09:20:45;26.10;81.70
23231;DHT22;11784;49.818;8.632;2022-08-05T09:23:16;26.10;80.80
23231;DHT22;11784;49.818;8.632;2022-08-05T09:25:44;26.20;80.90
23231;DHT22;11784;49.818;8.632;2022-08-05T09:30:35;26.30;77.50
23231;DHT22;11784;49.818;8.632;2022-08-05T09:33:01;26.40;77.80
23231;DHT22;11784;49.818;8.632;2022-08-05T09:35:27;26.40;75.50
23231;DHT22;11784;49.818;8.632;2022-08-05T09:37:54;26.40;76.00
23231;DHT22;11784;49.818;8.632;2022-08-05T09:40:35;26.40;76.60
23231;DHT22;11784;49.818;8.632;2022-08-05T09:43:02;26.50;75.80
23231;DHT22;11784;49.818;8.632;2022-08-05T09:45:38;26.50;73.80
23231;DHT22;11784;49.818;8.632;2022-08-05T09:48:21;26.70;74.50
23231;DHT22;11784;49.818;8.632;2022-08-05T09:50:57;26.80;74.10
23231;DHT22;11784;49.818;8.632;2022-08-05T09:53:24;26.80;70.80
23231;DHT22;11784;49.818;8.632;2022-08-05T09:55:57;26.90;69.10
23231;DHT22;11784;49.818;8.632;2022-08-05T09:58:23;26.90;69.60
23231;DHT22;11784;49.818;8.632;2022-08-05T10:01:06;26.90;70.80
23231;DHT22;11784;49.818;8.632;2022-08-05T10:03:31;27.00;71.20
23231;DHT22;11784;49.818;8.632;2022-08-05T10:06:08;27.00;72.10
23231;DHT22;11784;49.818;8.632;2022-08-05T10:08:35;27.00;69.90
23231;DHT22;11784;49.818;8.632;2022-08-05T10:11:05;27.10;67.20
23231;DHT22;11784;49.818;8.632;2022-08-05T10:13:37;27.10;68.20
23231;DHT22;11784;49.818;8.632;2022-08-05T10:16:05;27.20;67.30
23231;DHT22;11784;49.818;8.632;2022-08-05T10:18:32;27.30;68.70
23231;DHT22;11784;49.818;8.632;2022-08-05T10:21:05;27.30;67.10
23231;DHT22;11784;49.818;8.632;2022-08-05T10:23:33;27.40;68.00
23231;DHT22;11784;49.818;8.632;2022-08-05T10:26:03;27.50;66.60
23231;DHT22;11784;49.818;8.632;2022-08-05T10:28:29;27.50;65.30
23231;DHT22;11784;49.818;8.632;2022-08-05T10:30:56;27.50;66.70
23231;DHT22;11784;49.818;8.632;2022-08-05T10:33:23;27.60;66.50
23231;DHT22;11784;49.818;8.632;2022-08-05T10:35:50;27.60;66.70
23231;DHT22;11784;49.818;8.632;2022-08-05T10:38:18;27.50;66.70
23231;DHT22;11784;49.818;8.632;2022-08-05T10:45:56;27.50;65.90
23231;DHT22;11784;49.818;8.632;2022-08-05T10:48:36;27.60;66.40
23231;DHT22;11784;49.818;8.632;2022-08-05T10:53:40;27.60;66.30
23231;DHT22;11784;49.818;8.632;2022-08-05T10:56:28;27.60;65.20
23231;DHT22;11784;49.818;8.632;2022-08-05T11:01:27;27.70;62.90
23231;DHT22;11784;49.818;8.632;2022-08-05T11:04:12;27.70;62.60
23231;DHT22;11784;49.818;8.632;2022-08-05T11:09:26;27.70;62.30
23231;DHT22;11784;49.818;8.632;2022-08-05T11:11:53;27.60;62.60
23231;DHT22;11784;49.818;8.632;2022-08-05T11:14:30;27.60;63.30
23231;DHT22;11784;49.818;8.632;2022-08-05T11:19:52;27.40;63.60
23231;DHT22;11784;49.818;8.632;2022-08-05T11:22:45;27.30;62.90
23231;DHT22;11784;49.818;8.632;2022-08-05T11:25:32;27.20;63.00
23231;DHT22;11784;49.818;8.632;2022-08-05T11:33:25;27.10;63.70
23231;DHT22;11784;49.818;8.632;2022-08-05T11:35:53;27.20;62.80
23231;DHT22;11784;49.818;8.632;2022-08-05T11:41:14;27.30;62.50
23231;DHT22;11784;49.818;8.632;2022-08-05T11:46:31;27.40;62.20
23231;DHT22;11784;49.818;8.632;2022-08-05T11:48:59;27.40;62.40
23231;DHT22;11784;49.818;8.632;2022-08-05T11:51:26;27.40;62.10
23231;DHT22;11784;49.818;8.632;2022-08-05T11:53:53;27.40;61.40
23231;DHT22;11784;49.818;8.632;2022-08-05T11:56:20;27.50;61.00
23231;DHT22;11784;49.818;8.632;2022-08-05T11:58:47;27.50;61.70
23231;DHT22;11784;49.818;8.632;2022-08-05T12:01:31;27.50;61.90
23231;DHT22;11784;49.818;8.632;2022-08-05T12:03:56;27.60;61.90
23231;DHT22;11784;49.818;8.632;2022-08-05T12:06:25;27.70;61.70
23231;DHT22;11784;49.818;8.632;2022-08-05T12:08:56;27.80;61.70
23231;DHT22;11784;49.818;8.632;2022-08-05T12:11:27;27.80;61.60
23231;DHT22;11784;49.818;8.632;2022-08-05T12:13:58;27.80;60.50
23231;DHT22;11784;49.818;8.632;2022-08-05T12:16:24;27.90;61.10
23231;DHT22;11784;49.818;8.632;2022-08-05T12:18:50;27.80;61.10
23231;DHT22;11784;49.818;8.632;2022-08-05T12:21:25;27.80;61.20
23231;DHT22;11784;49.818;8.632;2022-08-05T12:24:08;27.80;60.60
23231;DHT22;11784;49.818;8.632;2022-08-05T12:26:42;27.80;61.20
23231;DHT22;11784;49.818;8.632;2022-08-05T12:29:11;27.90;62.30
23231;DHT22;11784;49.818;8.632;2022-08-05T12:31:38;28.00;61.10
23231;DHT22;11784;49.818;8.632;2022-08-05T12:34:06;28.10;61.10
23231;DHT22;11784;49.818;8.632;2022-08-05T12:36:33;28.10;60.20
23231;DHT22;11784;49.818;8.632;2022-08-05T12:38:59;28.20;60.50
23231;DHT22;11784;49.818;8.632;2022-08-05T12:41:30;28.30;59.80
23231;DHT22;11784;49.818;8.632;2022-08-05T12:44:06;28.30;59.50
23231;DHT22;11784;49.818;8.632;2022-08-05T12:46:34;28.30;59.60
23231;DHT22;11784;49.818;8.632;2022-08-05T12:49:13;28.40;59.70
23231;DHT22;11784;49.818;8.632;2022-08-05T12:51:55;28.40;59.70
23231;DHT22;11784;49.818;8.632;2022-08-05T12:54:30;28.40;59.80
23231;DHT22;11784;49.818;8.632;2022-08-05T12:57:04;28.50;59.90
23231;DHT22;11784;49.818;8.632;2022-08-05T12:59:31;28.50;59.30
23231;DHT22;11784;49.818;8.632;2022-08-05T13:01:58;28.60;59.60
23231;DHT22;11784;49.818;8.632;2022-08-05T13:04:29;28.60;59.10
23231;DHT22;11784;49.818;8.632;2022-08-05T13:06:55;28.60;59.60
23231;DHT22;11784;49.818;8.632;2022-08-05T13:09:21;28.60;59.40
23231;DHT22;11784;49.818;8.632;2022-08-05T13:11:47;28.60;59.30
23231;DHT22;11784;49.818;8.632;2022-08-05T13:14:22;28.60;59.40
23231;DHT22;11784;49.818;8.632;2022-08-05T13:16:56;28.60;59.80
23231;DHT22;11784;49.818;8.632;2022-08-05T13:19:26;28.60;59.50
23231;DHT22;11784;49.818;8.632;2022-08-05T13:21:53;28.60;60.20
23231;DHT22;11784;49.818;8.632;2022-08-05T13:24:20;28.60;59.90
23231;DHT22;11784;49.818;8.632;2022-08-05T13:26:46;28.60;60.10
23231;DHT22;11784;49.818;8.632;2022-08-05T13:29:13;28.60;60.20
23231;DHT22;11784;49.818;8.632;2022-08-05T13:31:38;28.50;59.90
23231;DHT22;11784;49.818;8.632;2022-08-05T13:34:04;28.50;60.50
23231;DHT22;11784;49.818;8.632;2022-08-05T13:36:29;28.50;61.30
23231;DHT22;11784;49.818;8.632;2022-08-05T13:38:55;28.60;61.40
23231;DHT22;11784;49.818;8.632;2022-08-05T13:41:21;28.60;61.00
23231;DHT22;11784;49.818;8.632;2022-08-05T13:43:46;28.70;60.50
23231;DHT22;11784;49.818;8.632;2022-08-05T13:46:12;28.80;60.50
23231;DHT22;11784;49.818;8.632;2022-08-05T13:48:38;28.90;60.60
23231;DHT22;11784;49.818;8.632;2022-08-05T13:51:08;29.20;60.50
23231;DHT22;11784;49.818;8.632;2022-08-05T13:53:34;29.40;59.20
23231;DHT22;11784;49.818;8.632;2022-08-05T13:56:00;29.70;59.10
23231;DHT22;11784;49.818;8.632;2022-08-05T13:58:26;30.20;58.80
23231;DHT22;11784;49.818;8.632;2022-08-05T14:00:52;30.70;57.40
23231;DHT22;11784;49.818;8.632;2022-08-05T14:03:18;31.20;55.90
23231;DHT22;11784;49.818;8.632;2022-08-05T14:05:43;31.40;54.70
23231;DHT22;11784;49.818;8.632;2022-08-05T14:08:09;31.40;54.80
23231;DHT22;11784;49.818;8.632;2022-08-05T14:10:34;31.40;54.60
23231;DHT22;11784;49.818;8.632;2022-08-05T14:13:00;31.50;55.50
23231;DHT22;11784;49.818;8.632;2022-08-05T14:15:27;31.50;54.90
23231;DHT22;11784;49.818;8.632;2022-08-05T14:17:53;31.40;55.10
23231;DHT22;11784;49.818;8.632;2022-08-05T14:20:18;31.30;54.50
23231;DHT22;11784;49.818;8.632;2022-08-05T14:22:44;31.10;54.80
23231;DHT22;11784;49.818;8.632;2022-08-05T14:25:10;30.80;55.50
23231;DHT22;11784;49.818;8.632;2022-08-05T14:27:35;30.50;56.00
23231;DHT22;11784;49.818;8.632;2022-08-05T14:30:02;30.30;57.00
23231;DHT22;11784;49.818;8.632;2022-08-05T14:32:28;30.10;57.90
23231;DHT22;11784;49.818;8.632;2022-08-05T14:34:55;29.90;58.50
23231;DHT22;11784;49.818;8.632;2022-08-05T14:37:21;29.70;58.80
23231;DHT22;11784;49.818;8.632;2022-08-05T14:39:47;29.50;57.90
23231;DHT22;11784;49.818;8.632;2022-08-05T14:42:12;29.40;57.80
23231;DHT22;11784;49.818;8.632;2022-08-05T14:44:38;29.30;57.90
23231;DHT22;11784;49.818;8.632;2022-08-05T14:47:04;29.20;58.50
23231;DHT22;11784;49.818;8.632;2022-08-05T14:49:29;29.10;58.40
23231;DHT22;11784;49.818;8.632;2022-08-05T14:51:55;29.10;59.20
23231;DHT22;11784;49.818;8.632;2022-08-05T14:54:20;29.00;59.60
23231;DHT22;11784;49.818;8.632;2022-08-05T14:56:46;28.80;60.50
23231;DHT22;11784;49.818;8.632;2022-08-05T14:59:12;28.60;62.00
23231;DHT22;11784;49.818;8.632;2022-08-05T15:01:38;28.40;62.90
23231;DHT22;11784;49.818;8.632;2022-08-05T15:04:03;28.30;63.50
23231;DHT22;11784;49.818;8.632;2022-08-05T15:06:31;28.10;64.40
23231;DHT22;11784;49.818;8.632;2022-08-05T15:08:56;28.00;64.30
23231;DHT22;11784;49.818;8.632;2022-08-05T15:11:22;27.90;64.90
23231;DHT22;11784;49.818;8.632;2022-08-05T15:13:48;27.90;65.00
23231;DHT22;11784;49.818;8.632;2022-08-05T15:16:13;28.00;63.80
23231;DHT22;11784;49.818;8.632;2022-08-05T15:18:39;28.00;63.30
23231;DHT22;11784;49.818;8.632;2022-08-05T15:21:04;28.00;63.00
23231;DHT22;11784;49.818;8.632;2022-08-05T15:23:30;28.00;63.30
23231;DHT22;11784;49.818;8.632;2022-08-05T15:25:55;27.90;62.60
23231;DHT22;11784;49.818;8.632;2022-08-05T15:28:21;27.80;62.50
23231;DHT22;11784;49.818;8.632;2022-08-05T15:30:47;27.70;62.50
23231;DHT22;11784;49.818;8.632;2022-08-05T15:33:13;27.70;62.80
23231;DHT22;11784;49.818;8.632;2022-08-05T15:35:39;27.50;61.40
23231;DHT22;11784;49.818;8.632;2022-08-05T15:38:04;27.50;61.40
23231;DHT22;11784;49.818;8.632;2022-08-05T15:40:30;27.30;62.20
23231;DHT22;11784;49.818;8.632;2022-08-05T15:42:56;27.30;62.50
23231;DHT22;11784;49.818;8.632;2022-08-05T15:45:21;27.10;62.20
23231;DHT22;11784;49.818;8.632;2022-08-05T15:47:47;27.10;63.00
23231;DHT22;11784;49.818;8.632;2022-08-05T15:50:12;27.00;63.00
23231;DHT22;11784;49.818;8.632;2022-08-05T15:52:39;26.90;62.90
23231;DHT22;11784;49.818;8.632;2022-08-05T15:55:07;26.80;63.10
23231;DHT22;11784;49.818;8.632;2022-08-05T15:57:33;26.80;62.40
23231;DHT22;11784;49.818;8.632;2022-08-05T16:00:00;26.70;63.10
23231;DHT22;11784;49.818;8.632;2022-08-05T16:02:26;26.70;63.30
23231;DHT22;11784;49.818;8.632;2022-08-05T16:04:52;26.70;64.20
23231;DHT22;11784;49.818;8.632;2022-08-05T16:07:18;26.50;63.20
23231;DHT22;11784;49.818;8.632;2022-08-05T16:09:46;26.40;63.50